Time;durP1;ratioP1;P1;durP2;ratioP2;P2;SDS_P1;SDS_P2;PMS_P1;PMS_P2;Temp;Humidity;BMP_temperature;BMP_pressure;BME280_temperature;BME280_humidity;BME280_pressure;Samples;Min_cycle;Max_cycle;Signal;HPM_P1;HPM_P2
2023/04/03 00:01:26;;;;;;;5.35;4.38;;;8.90;99.90;;;9.09;62.23;102918.88;4993619;28;20149;-67
2023/04/03 00:03:55;;;;;;;5.28;4.50;;;8.90;99.90;;;9.07;61.81;102918.81;4994602;28;20042;-67
2023/04/03 00:06:24;;;;;;;8.48;4.63;;;8.90;99.90;;;9.15;62.14;102927.00;4994580;28;20043;-67
2023/04/03 00:08:53;;;;;;;5.28;4.75;;;9.00;99.90;;;9.10;61.77;102928.56;4995031;28;20046;-69
2023/04/03 00:11:22;;;;;;;5.30;4.38;;;8.90;99.90;;;9.10;61.76;102925.94;4994775;28;20053;-66
2023/04/03 00:13:51;;;;;;;5.15;4.57;;;8.90;99.90;;;9.07;61.39;102925.84;4994658;28;20124;-66
2023/04/03 00:16:20;;;;;;;7.18;4.78;;;8.90;99.90;;;9.07;61.77;102937.31;4994332;28;20059;-67
2023/04/03 00:18:48;;;;;;;4.97;4.53;;;8.90;99.90;;;9.04;61.47;102923.06;4994223;28;20043;-66
2023/04/03 00:21:16;;;;;;;6.72;4.95;;;8.90;99.90;;;9.06;61.03;102927.56;4994217;28;20034;-66
2023/04/03 00:23:45;;;;;;;5.03;4.57;;;8.90;99.90;;;9.08;61.18;102927.63;4994205;28;20058;-66
2023/04/03 00:26:13;;;;;;;4.88;4.13;;;8.90;99.90;;;9.02;61.36;102924.75;4994152;28;20400;-67
2023/04/03 00:28:42;;;;;;;6.18;4.65;;;8.90;99.90;;;8.92;61.13;102925.31;4993101;28;20054;-67
2023/04/03 00:31:15;;;;;;;8.35;4.97;;;8.80;99.90;;;8.71;61.25;102929.81;4994361;28;20054;-67
2023/04/03 00:33:43;;;;;;;7.80;4.93;;;8.80;99.90;;;8.67;61.48;102896.25;4994090;28;20496;-67
2023/04/03 00:36:13;;;;;;;5.45;4.70;;;8.70;99.90;;;8.86;61.82;102928.63;4992904;28;20484;-66
2023/04/03 00:38:41;;;;;;;6.22;4.63;;;8.70;99.90;;;8.88;61.89;102929.56;4993877;28;20408;-66
2023/04/03 00:41:10;;;;;;;7.45;4.60;;;8.70;99.90;;;8.84;61.54;102929.41;4994211;28;20066;-67
2023/04/03 00:43:38;;;;;;;5.35;4.80;;;8.70;99.90;;;8.61;61.43;102896.94;4994119;28;20066;-67
2023/04/03 00:46:08;;;;;;;6.10;5.50;;;8.70;99.90;;;8.80;61.48;102931.06;4994436;28;20042;-67
2023/04/03 00:48:41;;;;;;;5.75;5.03;;;8.70;99.90;;;8.74;61.48;102932.56;4993999;28;20054;-67
2023/04/03 00:51:14;;;;;;;7.15;5.22;;;8.70;99.90;;;8.72;61.02;102945.72;4992713;28;20046;-67
2023/04/03 00:53:47;;;;;;;6.25;4.50;;;8.60;99.90;;;8.70;61.59;102928.00;4994270;28;20085;-67
2023/04/03 00:56:19;;;;;;;6.70;4.55;;;8.60;99.90;;;8.66;61.43;102921.75;4994538;28;20447;-66
2023/04/03 00:58:53;;;;;;;5.40;4.93;;;8.50;99.90;;;8.35;61.39;102902.09;4993921;28;20046;-66
2023/04/03 01:01:25;;;;;;;7.00;5.25;;;8.40;99.90;;;8.53;61.58;102930.06;4993765;28;20097;-66
2023/04/03 01:03:55;;;;;;;5.60;5.10;;;8.40;99.90;;;8.55;61.73;102938.00;4993911;28;20050;-67
2023/04/03 01:06:30;;;;;;;6.50;4.68;;;8.40;99.90;;;8.51;61.27;102936.09;4993568;28;20038;-66
2023/04/03 01:09:06;;;;;;;5.75;5.25;;;8.40;99.90;;;8.39;61.58;102940.91;4992168;28;20120;-67
2023/04/03 01:11:34;;;;;;;8.68;4.82;;;8.30;99.90;;;8.41;61.22;102934.88;4992481;28;20069;-67
2023/04/03 01:14:05;;;;;;;5.43;4.93;;;8.30;99.90;;;8.23;61.71;102908.66;4993955;28;20109;-66
2023/04/03 01:16:34;;;;;;;6.03;4.70;;;8.30;99.90;;;8.35;61.53;102944.28;4993883;28;20530;-67
2023/04/03 01:19:07;;;;;;;5.88;5.35;;;8.20;99.90;;;8.37;61.86;102946.13;4993337;28;20038;-66
2023/04/03 01:22:07;;;;;;;5.25;4.75;;;8.20;99.90;;;8.34;61.57;102942.50;4992288;28;20046;-67
2023/04/03 01:24:38;;;;;;;7.40;5.28;;;8.20;99.90;;;8.25;61.70;102950.03;4992349;28;20465;-66
2023/04/03 01:27:11;;;;;;;4.90;4.45;;;8.20;99.90;;;8.20;61.90;102945.47;4992363;28;20566;-66
2023/04/03 01:29:41;;;;;;;;;;;8.10;99.90;;;8.20;62.35;102949.84;4992768;28;20183;-67
2023/04/03 01:32:11;;;;;;;5.90;4.53;;;8.10;99.90;;;8.14;62.23;102949.59;4993523;28;19926;-67
2023/04/03 01:34:42;;;;;;;5.18;4.75;;;8.10;99.90;;;8.14;62.27;102942.59;4992166;28;20101;-66
2023/04/03 01:37:10;;;;;;;5.18;4.65;;;8.10;99.90;;;8.15;62.51;102949.66;4992181;28;20047;-66
2023/04/03 01:39:39;;;;;;;7.57;5.22;;;8.00;99.90;;;8.15;62.35;102949.66;4993602;28;20144;-66
2023/04/03 01:42:07;;;;;;;5.57;4.90;;;8.00;99.90;;;8.14;62.71;102939.06;4992046;28;20047;-67
2023/04/03 01:44:40;;;;;;;8.75;4.65;;;8.00;99.90;;;8.18;62.32;102948.88;4992126;28;20463;-67
2023/04/03 01:47:10;;;;;;;5.82;5.18;;;8.10;99.90;;;7.99;62.21;102938.47;4991590;28;20066;-66
2023/04/03 01:49:40;;;;;;;6.70;5.25;;;7.90;99.90;;;8.03;62.53;102950.94;4992091;28;20511;-67
2023/04/03 01:52:09;;;;;;;6.68;5.22;;;7.90;99.90;;;7.99;62.31;102936.69;4993271;28;20042;-66
2023/04/03 01:54:37;;;;;;;5.35;4.85;;;7.90;99.90;;;7.95;62.33;102942.72;4991993;28;20048;-66
2023/04/03 01:57:06;;;;;;;6.18;5.15;;;7.90;99.90;;;7.94;62.25;102943.53;4991974;28;20052;-67
2023/04/03 01:59:35;;;;;;;7.03;5.03;;;7.80;99.90;;;7.87;62.61;102943.25;4991532;28;20089;-67
2023/04/03 02:02:03;;;;;;;6.45;5.50;;;7.80;99.90;;;7.85;62.85;102945.81;4991946;28;20047;-67
2023/04/03 02:04:33;;;;;;;7.18;5.25;;;7.80;99.90;;;7.82;62.86;102945.69;4993195;28;20496;-67
2023/04/03 02:07:01;;;;;;;7.47;5.27;;;7.70;99.90;;;7.87;63.20;102954.69;4991884;28;20377;-66
2023/04/03 02:09:30;;;;;;;6.63;5.60;;;7.80;99.90;;;7.89;62.93;102950.38;4993634;28;20317;-66
2023/04/03 02:11:58;;;;;;;6.93;5.68;;;7.80;99.90;;;7.85;62.93;102958.09;4991864;28;20396;-66
2023/04/03 02:14:27;;;;;;;5.60;5.00;;;7.80;99.90;;;7.74;63.13;102962.91;4991785;28;20086;-67
2023/04/03 02:16:55;;;;;;;5.75;5.15;;;7.60;99.90;;;7.80;63.29;102952.63;4993093;28;20058;-67
2023/04/03 02:19:24;;;;;;;6.53;5.18;;;7.60;99.90;;;7.71;63.13;102957.53;4993305;28;20038;-66
2023/04/03 02:21:53;;;;;;;7.63;5.65;;;7.60;99.90;;;7.74;63.32;102955.00;4995439;28;20054;-66
2023/04/03 02:24:22;;;;;;;6.47;5.10;;;7.60;99.90;;;7.71;63.83;102968.06;4996814;28;20093;-67
2023/04/03 02:26:51;;;;;;;7.32;5.47;;;7.60;99.90;;;7.70;63.71;102968.00;4996419;28;20277;-66
2023/04/03 02:29:20;;;;;;;7.00;5.28;;;7.60;99.90;;;7.53;63.86;102972.56;4995517;28;20050;-66
2023/04/03 02:31:48;;;;;;;5.70;5.10;;;7.40;99.90;;;7.58;64.05;102968.41;4996311;28;20389;-66
2023/04/03 02:34:17;;;;;;;6.63;5.32;;;7.50;99.90;;;7.60;63.83;102969.38;4996550;28;20039;-66
2023/04/03 02:36:46;;;;;;;5.70;5.10;;;7.40;99.90;;;7.52;64.32;102959.34;4995187;28;20466;-67
2023/04/03 02:39:18;;;;;;;6.37;4.83;;;7.40;99.90;;;7.60;64.27;102969.38;4995370;28;20042;-66
2023/04/03 02:41:46;;;;;;;6.63;5.00;;;7.50;99.90;;;7.61;63.97;102972.88;4995189;28;20294;-67
2023/04/03 02:44:20;;;;;;;7.03;5.53;;;7.50;99.90;;;7.60;64.04;102969.38;4995144;28;20046;-66
2023/04/03 02:46:48;;;;;;;7.05;5.68;;;7.50;99.90;;;7.62;64.40;102969.44;4995064;28;20046;-66
2023/04/03 02:49:18;;;;;;;6.25;5.07;;;7.50;99.90;;;7.56;64.02;102962.19;4995030;28;20053;-66
2023/04/03 02:51:47;;;;;;;7.13;5.13;;;7.40;99.90;;;7.49;64.73;102964.50;4994919;28;20165;-66
2023/04/03 02:54:17;;;;;;;7.45;5.28;;;7.40;99.90;;;7.45;64.78;102963.47;4996179;28;20447;-67
2023/04/03 02:56:50;;;;;;;6.65;4.80;;;7.40;99.90;;;7.53;64.76;102972.56;4994934;28;20559;-66
2023/04/03 02:59:19;;;;;;;8.60;5.60;;;7.40;99.90;;;7.55;64.77;102973.53;4994434;28;20050;-66
2023/04/03 03:01:48;;;;;;;6.25;5.60;;;7.40;99.90;;;6.66;64.32;102810.97;4995043;28;20074;-66
2023/04/03 03:04:16;;;;;;;6.97;5.18;;;7.40;99.90;;;7.50;64.37;102972.47;4994666;28;20100;-66
2023/04/03 03:06:46;;;;;;;6.22;5.70;;;7.40;99.90;;;7.44;64.77;102966.94;4994936;28;20054;-66
2023/04/03 03:09:14;;;;;;;6.07;5.43;;;7.40;99.90;;;7.30;64.79;102936.50;4994661;28;20427;-66
2023/04/03 03:11:45;;;;;;;7.22;5.65;;;7.40;99.90;;;7.42;65.16;102968.59;4995850;28;20124;-66
2023/04/03 03:14:13;;;;;;;7.13;5.28;;;7.30;99.90;;;7.21;64.85;102937.03;4994665;28;20052;-66
2023/04/03 03:16:41;;;;;;;6.25;5.35;;;7.30;99.90;;;7.44;65.08;102969.56;4995443;28;20538;-66
2023/04/03 03:19:10;;;;;;;6.63;5.63;;;7.30;99.90;;;7.35;64.90;102968.28;4995684;28;20046;-67
2023/04/03 03:21:39;;;;;;;7.22;5.22;;;7.30;99.90;;;7.36;65.23;102976.25;4994373;28;20049;-67
2023/04/03 03:24:08;;;;;;;7.30;6.20;;;7.20;99.90;;;7.36;65.28;102981.50;4994523;28;20058;-67
2023/04/03 03:26:37;;;;;;;6.57;5.32;;;7.20;99.90;;;7.37;65.38;102975.41;4995507;28;20050;-66
2023/04/03 03:29:07;;;;;;;11.60;5.68;;;7.20;99.90;;;7.37;65.75;102969.25;4994131;28;20054;-66
2023/04/03 03:31:35;;;;;;;7.88;5.10;;;7.20;99.90;;;7.34;65.45;102971.75;4993602;28;20050;-67
2023/04/03 03:34:03;;;;;;;9.95;5.82;;;7.20;99.90;;;7.28;65.21;102970.66;4994166;28;20389;-66
2023/04/03 03:36:32;;;;;;;6.80;5.53;;;7.20;99.90;;;7.35;65.58;102981.44;4994126;28;20070;-67
2023/04/03 03:39:01;;;;;;;7.57;5.60;;;7.20;99.90;;;7.32;65.35;102972.59;4995276;28;20038;-66
2023/04/03 03:41:30;;;;;;;6.80;5.22;;;7.20;99.90;;;7.38;65.39;102977.19;4994001;28;20064;-66
2023/04/03 03:43:59;;;;;;;5.38;4.88;;;7.20;99.90;;;7.39;65.52;102986.00;4995247;28;20132;-66
2023/04/03 03:46:31;;;;;;;6.00;5.20;;;7.20;99.90;;;7.36;65.47;102984.13;4993970;28;20484;-66
2023/04/03 03:49:00;;;;;;;5.78;5.20;;;7.20;99.90;;;7.32;65.58;102979.56;4993871;28;20058;-66
2023/04/03 03:51:28;;;;;;;5.97;5.35;;;7.20;99.90;;;7.27;65.92;102984.66;4993725;28;20042;-66
2023/04/03 03:53:58;;;;;;;7.88;5.22;;;7.10;99.90;;;7.29;66.03;102987.34;4993742;28;20488;-66
2023/04/03 03:56:26;;;;;;;6.50;5.30;;;7.20;99.90;;;7.26;65.89;102987.19;4993674;28;20046;-66
2023/04/03 03:58:56;;;;;;;7.28;5.10;;;7.10;99.90;;;7.24;66.07;102987.13;4994857;28;20046;-66
2023/04/03 04:01:25;;;;;;;6.25;5.25;;;7.10;99.90;;;7.19;66.42;102985.16;4993655;28;20054;-66
2023/04/03 04:03:55;;;;;;;7.68;5.70;;;7.10;99.90;;;7.20;66.44;102986.97;4994873;28;20039;-67
2023/04/03 04:06:28;;;;;;;11.07;6.22;;;7.10;99.90;;;7.22;66.25;102990.53;4994601;28;20042;-66
2023/04/03 04:08:59;;;;;;;6.20;5.38;;;7.10;99.90;;;7.20;66.49;102985.22;4993234;28;20058;-66
2023/04/03 04:11:28;;;;;;;7.75;5.97;;;7.10;99.90;;;7.18;66.39;102986.88;4993347;28;20046;-66
2023/04/03 04:13:57;;;;;;;7.20;5.88;;;7.10;99.90;;;7.13;66.93;102977.91;4993364;28;20042;-66
2023/04/03 04:16:28;;;;;;;7.50;6.22;;;7.10;99.90;;;7.07;66.75;102987.25;4992986;28;20050;-66
2023/04/03 04:19:01;;;;;;;6.82;5.75;;;7.00;99.90;;;7.01;67.04;103001.03;4994688;28;20395;-66
2023/04/03 04:21:30;;;;;;;6.07;5.55;;;6.90;99.90;;;7.03;66.79;102993.19;4993303;28;20051;-66
2023/04/03 04:23:58;;;;;;;7.53;5.82;;;6.90;99.90;;;7.03;67.16;102994.09;4993216;28;20042;-66
2023/04/03 04:26:27;;;;;;;6.47;5.82;;;6.90;99.90;;;7.09;67.22;102991.75;4994449;28;20042;-66
2023/04/03 04:28:55;;;;;;;7.40;5.70;;;7.00;99.90;;;7.06;66.91;102998.63;4993147;28;20100;-66
2023/04/03 04:31:24;;;;;;;6.78;5.22;;;6.90;99.90;;;6.91;67.00;103005.84;4993086;28;20077;-67
2023/04/03 04:33:53;;;;;;;6.43;5.35;;;6.90;99.90;;;7.00;67.36;103006.22;4992692;28;20097;-66
2023/04/03 04:36:23;;;;;;;8.88;5.72;;;6.90;99.90;;;7.04;67.43;103000.28;4992968;28;20137;-66
2023/04/03 04:38:52;;;;;;;7.05;5.57;;;7.00;99.90;;;6.96;67.62;102997.31;4994289;28;20097;-66
2023/04/03 04:41:23;;;;;;;6.93;5.68;;;6.90;99.90;;;6.93;67.61;102996.28;4992918;28;20122;-66
2023/04/03 04:43:53;;;;;;;7.47;5.78;;;6.80;99.90;;;6.94;67.93;102995.44;4992404;28;20559;-66
2023/04/03 04:46:23;;;;;;;8.13;5.85;;;6.80;99.90;;;6.96;68.06;102999.94;4992810;28;20089;-66
2023/04/03 04:48:55;;;;;;;6.70;6.00;;;6.90;99.90;;;6.85;67.69;102988.03;4994145;28;20097;-66
2023/04/03 04:51:29;;;;;;;7.85;5.75;;;6.80;99.90;;;6.84;67.87;103001.13;4992789;28;20058;-66
2023/04/03 04:54:09;;;;;;;8.98;6.00;;;6.80;99.90;;;6.85;68.18;103009.06;4992984;28;20432;-67
2023/04/03 04:56:38;;;;;;;8.63;6.32;;;6.70;99.90;;;6.85;68.17;103014.31;4992613;28;20050;-67
2023/04/03 04:59:06;;;;;;;10.85;6.35;;;6.80;99.90;;;6.85;68.33;103009.06;4992600;28;20104;-66
2023/04/03 05:01:35;;;;;;;7.75;6.70;;;6.70;99.90;;;6.83;68.37;103010.72;4992470;28;20104;-67
2023/04/03 05:04:09;;;;;;;12.07;5.93;;;6.70;99.90;;;6.81;68.41;103009.78;4992490;28;20059;-66
2023/04/03 05:06:40;;;;;;;8.90;6.85;;;6.70;99.90;;;6.82;68.53;103005.41;4992478;28;20109;-66
2023/04/03 05:09:14;;;;;;;8.18;6.47;;;6.70;99.90;;;6.73;68.86;103037.47;4992513;28;20165;-66
2023/04/03 05:11:44;;;;;;;8.73;6.55;;;6.60;99.90;;;6.73;68.76;103015.53;4992492;28;20461;-66
2023/04/03 05:14:15;;;;;;;;;;;6.60;99.90;;;6.68;68.92;103012.66;4992569;28;20054;-66
2023/04/03 05:16:44;;;;;;;9.70;6.80;;;6.60;99.90;;;6.75;68.84;103019.13;4992078;28;19922;-66
2023/04/03 05:19:14;;;;;;;9.25;6.22;;;6.60;99.90;;;6.72;68.99;103009.34;4992232;28;20073;-67
2023/04/03 05:21:44;;;;;;;9.20;6.47;;;6.60;99.90;;;6.73;69.29;103018.16;4992209;28;20051;-66
2023/04/03 05:24:16;;;;;;;10.80;6.70;;;6.60;99.90;;;6.75;69.28;103005.97;4992270;28;20054;-66
2023/04/03 05:26:45;;;;;;;9.98;5.88;;;6.60;99.90;;;6.81;69.21;103007.16;4992290;28;20053;-66
2023/04/03 05:29:15;;;;;;;9.00;5.90;;;6.70;99.90;;;6.89;69.23;103023.28;4992527;28;20047;-67
2023/04/03 05:31:43;;;;;;;6.70;6.10;;;6.70;99.90;;;7.00;69.38;103016.75;4992131;28;20057;-66
2023/04/03 05:34:13;;;;;;;10.90;6.85;;;6.80;99.90;;;7.05;68.75;103013.50;4992185;28;20038;-66
2023/04/03 05:36:45;;;;;;;9.13;6.05;;;6.90;99.90;;;7.17;69.11;103014.03;4992141;28;20160;-66
2023/04/03 05:39:15;;;;;;;8.10;6.10;;;7.00;99.90;;;7.19;68.45;103025.53;4992127;28;20046;-66
2023/04/03 05:41:46;;;;;;;9.45;6.40;;;7.00;99.90;;;7.23;68.64;103024.84;4992174;28;20042;-67
2023/04/03 05:44:15;;;;;;;7.25;6.22;;;7.10;99.90;;;7.32;68.33;103024.31;4992011;28;20412;-66
2023/04/03 05:46:46;;;;;;;10.70;6.28;;;7.20;99.90;;;7.09;68.14;102985.56;4992338;28;20050;-66
2023/04/03 05:49:15;;;;;;;9.20;6.50;;;7.30;99.90;;;7.46;68.16;103025.81;4991997;28;20042;-67
2023/04/03 05:51:45;;;;;;;8.20;6.07;;;7.30;99.90;;;7.50;67.72;103019.84;4991981;28;20046;-66
2023/04/03 05:54:26;;;;;;;10.77;7.13;;;7.40;99.90;;;7.62;68.00;103027.38;4993850;28;20182;-67
2023/04/03 05:57:02;;;;;;;9.73;6.33;;;7.50;99.90;;;7.76;67.39;103032.38;4996000;28;20145;-67
2023/04/03 05:59:31;;;;;;;8.35;6.43;;;7.60;99.90;;;8.01;67.09;103037.81;4995790;28;20412;-66
2023/04/03 06:02:01;;;;;;;9.85;6.78;;;7.90;99.90;;;8.21;66.40;103046.53;4995838;28;20133;-67
2023/04/03 06:04:29;;;;;;;8.07;6.10;;;8.10;99.90;;;8.40;66.01;103049.06;4995686;28;20124;-67
2023/04/03 06:07:00;;;;;;;8.38;6.30;;;8.30;99.90;;;8.55;65.06;103054.06;4995631;28;20068;-67
2023/04/03 06:09:29;;;;;;;8.80;5.80;;;8.40;99.90;;;8.57;64.06;103052.41;4995748;28;20054;-67
2023/04/03 06:11:59;;;;;;;7.80;5.70;;;8.50;99.90;;;8.68;64.44;103056.34;4996753;28;20034;-67
2023/04/03 06:14:30;;;;;;;8.13;5.72;;;8.50;99.90;;;8.77;63.49;103056.66;4995584;28;20101;-67
2023/04/03 06:16:59;;;;;;;8.65;5.25;;;8.60;99.90;;;8.85;63.16;103065.78;4997070;28;20205;-67
2023/04/03 06:19:27;;;;;;;7.60;5.57;;;8.70;99.90;;;8.77;62.98;103030.28;4996727;28;20046;-67
2023/04/03 06:22:00;;;;;;;8.13;5.60;;;8.80;99.90;;;9.05;62.42;103059.53;4995664;28;20050;-67
2023/04/03 06:24:30;;;;;;;9.15;6.38;;;8.80;99.90;;;9.19;62.42;103068.84;4995455;28;20061;-67
2023/04/03 06:26:59;;;;;;;;;;;9.00;99.90;;;9.25;61.95;103076.09;4995815;28;20046;-66
2023/04/03 06:29:28;;;;;;;6.53;5.65;;;9.20;99.90;;;9.29;61.81;103065.66;4996262;28;19922;-69
2023/04/03 06:31:58;;;;;;;8.43;5.90;;;9.20;99.90;;;9.27;61.78;103077.03;4996610;28;20049;-68
2023/04/03 06:34:27;;;;;;;7.72;5.78;;;9.20;99.90;;;9.24;62.15;103082.19;4996539;28;20169;-68
2023/04/03 06:36:56;;;;;;;7.57;5.63;;;9.10;99.90;;;9.27;61.96;103077.03;4996241;28;20042;-68
2023/04/03 06:39:27;;;;;;;8.93;6.15;;;9.10;99.90;;;9.15;61.84;103076.59;4995067;28;20081;-68
2023/04/03 06:41:55;;;;;;;9.75;5.72;;;9.10;99.90;;;9.39;61.82;103072.22;4995020;28;20511;-67
2023/04/03 06:44:37;;;;;;;9.27;6.10;;;9.20;99.90;;;9.24;61.48;103074.28;4995316;28;20046;-66
2023/04/03 06:47:05;;;;;;;10.98;5.90;;;9.10;99.90;;;9.07;62.50;103047.28;4996015;28;20046;-67
2023/04/03 06:49:34;;;;;;;9.05;6.38;;;9.00;99.90;;;9.34;62.25;103076.41;4996024;28;20046;-68
2023/04/03 06:52:02;;;;;;;11.15;6.28;;;9.20;99.90;;;9.48;61.34;103078.72;4996156;28;20050;-68
2023/04/03 06:54:32;;;;;;;10.30;6.47;;;9.30;99.90;;;9.70;61.27;103077.69;4996130;28;20356;-66
2023/04/03 06:57:01;;;;;;;9.20;6.00;;;9.50;99.90;;;9.04;61.97;103071.81;4995906;28;20151;-66
2023/04/03 06:59:29;;;;;;;10.27;5.60;;;9.00;99.90;;;8.77;62.40;103078.69;4994813;28;20133;-67
2023/04/03 07:01:59;;;;;;;7.07;5.88;;;8.80;99.90;;;8.41;64.38;103072.00;4994735;28;20050;-67
2023/04/03 07:04:28;;;;;;;8.48;6.05;;;8.30;99.90;;;9.13;63.62;103075.63;4996522;28;20053;-67
2023/04/03 07:06:56;;;;;;;11.98;6.38;;;8.80;99.90;;;9.01;62.13;103082.28;4995209;28;20042;-68
2023/04/03 07:09:25;;;;;;;8.93;6.25;;;8.90;99.90;;;8.00;65.23;103098.38;4995965;28;20052;-67
2023/04/03 07:11:55;;;;;;;6.40;5.47;;;8.00;99.90;;;8.38;64.23;103077.13;4995903;28;20050;-67
2023/04/03 07:14:24;;;;;;;9.68;6.15;;;8.20;99.90;;;7.75;67.38;103075.38;4995803;28;20129;-68
2023/04/03 07:16:52;;;;;;;10.23;6.32;;;7.60;99.90;;;7.81;67.08;103080.91;4996149;28;20069;-67
2023/04/03 07:19:21;;;;;;;11.13;5.88;;;7.70;99.90;;;7.21;68.29;103088.75;4995574;28;20046;-66
2023/04/03 07:21:49;;;;;;;11.82;5.90;;;7.20;99.90;;;7.41;68.94;103092.28;4995556;28;20052;-67
2023/04/03 07:24:17;;;;;;;9.45;6.55;;;7.20;99.90;;;7.24;67.69;103083.63;4994588;28;20104;-67
2023/04/03 07:26:50;;;;;;;9.50;5.60;;;7.10;99.90;;;7.49;67.26;103091.75;4995542;28;20369;-67
2023/04/03 07:29:21;;;;;;;10.38;5.70;;;7.30;99.90;;;7.47;66.28;103056.56;4995398;28;20074;-65
2023/04/03 07:31:50;;;;;;;11.88;6.15;;;7.50;99.90;;;7.94;65.91;103099.00;4995341;28;20062;-65
2023/04/03 07:34:18;;;;;;;10.80;6.53;;;7.70;99.90;;;7.37;66.63;103106.13;4995237;28;20078;-64
2023/04/03 07:36:47;;;;;;;8.73;6.03;;;7.40;99.90;;;7.06;68.48;103111.75;4995853;28;20097;-67
2023/04/03 07:39:16;;;;;;;9.48;6.22;;;7.00;99.90;;;7.38;69.04;103103.56;4995269;28;20452;-66
2023/04/03 07:41:44;;;;;;;11.25;6.53;;;7.10;99.90;;;7.52;67.94;103096.28;4994980;28;20046;-66
2023/04/03 07:44:12;;;;;;;11.77;6.60;;;7.40;99.90;;;7.79;67.40;103114.19;4994885;28;20522;-65
2023/04/03 07:46:42;;;;;;;10.27;5.90;;;7.60;99.90;;;7.77;65.75;103107.94;4995114;28;20100;-67
2023/04/03 07:49:11;;;;;;;9.18;5.70;;;7.70;99.90;;;7.45;67.37;103108.28;4994906;28;20050;-64
2023/04/03 07:51:39;;;;;;;7.75;5.53;;;7.30;99.90;;;7.44;67.15;103117.00;4994992;28;20042;-67
2023/04/03 07:54:08;;;;;;;9.25;5.60;;;7.40;99.90;;;6.87;66.28;103119.63;4993741;28;20081;-68
2023/04/03 07:56:36;;;;;;;11.73;5.90;;;6.90;99.90;;;6.82;68.17;103122.03;4994667;28;20069;-67
2023/04/03 07:59:04;;;;;;;8.90;5.45;;;6.70;99.90;;;6.91;68.75;103114.56;4994803;28;20066;-67
2023/04/03 08:01:33;;;;;;;9.07;5.90;;;6.80;99.90;;;6.89;67.54;103110.09;4994563;28;20043;-66
2023/04/03 08:04:03;;;;;;;9.80;6.32;;;6.80;99.90;;;6.77;69.12;103127.94;4993828;28;20046;-67
2023/04/03 08:06:34;;;;;;;9.38;6.22;;;6.70;99.90;;;6.93;69.02;103118.16;4995220;28;20042;-64
2023/04/03 08:09:15;;;;;;;14.93;6.07;;;6.70;99.90;;;7.73;67.53;103121.81;4994643;28;20158;-69
2023/04/03 08:11:44;;;;;;;13.55;6.25;;;7.40;99.90;;;7.86;66.58;103116.22;4994436;28;20404;-67
2023/04/03 08:14:16;;;;;;;9.32;6.45;;;7.70;99.90;;;7.91;64.84;103137.50;4994614;28;20052;-66
2023/04/03 08:16:46;;;;;;;11.05;5.50;;;7.90;99.90;;;8.38;65.31;103129.88;4994277;28;20046;-64
2023/04/03 08:19:17;;;;;;;11.05;5.75;;;8.20;99.90;;;8.80;63.81;103135.97;4993711;28;20038;-64
2023/04/03 08:21:54;;;;;;;9.05;5.30;;;8.60;99.90;;;9.23;61.09;103126.22;4994588;28;20056;-62
2023/04/03 08:24:23;;;;;;;10.73;5.30;;;9.00;99.90;;;9.71;59.54;103143.84;4994988;28;20120;-68
2023/04/03 08:26:51;;;;;;;9.13;5.35;;;9.50;99.90;;;9.91;57.13;103148.06;4994218;28;20061;-69
2023/04/03 08:29:20;;;;;;;7.00;5.05;;;9.80;99.90;;;9.59;57.83;103148.69;4994123;28;20066;-66
2023/04/03 08:31:50;;;;;;;8.30;5.63;;;9.60;99.90;;;9.05;59.12;103149.28;4994096;28;20101;-65
2023/04/03 08:34:21;;;;;;;6.40;4.88;;;9.00;99.90;;;8.13;60.39;103140.19;4994052;28;20069;-64
2023/04/03 08:36:49;;;;;;;28.55;6.05;;;8.30;99.90;;;7.57;62.35;103147.44;4993312;28;20100;-67
2023/04/03 08:39:18;;;;;;;13.50;5.68;;;7.60;99.90;;;7.83;62.14;103133.66;4994205;28;20130;-64
2023/04/03 08:41:47;;;;;;;9.80;5.72;;;7.60;99.90;;;8.28;60.89;103142.63;4994099;28;20050;-65
2023/04/03 08:44:25;;;;;;;8.65;5.72;;;8.10;99.90;;;7.34;61.15;103142.88;4993951;28;20097;-65
2023/04/03 08:47:06;;;;;;;9.70;5.70;;;7.40;99.90;;;7.92;62.13;103128.75;4992781;28;20475;-67
2023/04/03 08:49:39;;;;;;;;;;;7.70;99.90;;;7.99;64.73;103129.09;4993230;28;20136;-70
2023/04/03 08:52:14;;;;;;;10.00;5.70;;;7.70;99.90;;;8.65;60.44;103136.25;4993931;28;19922;-69
2023/04/03 08:54:52;;;;;;;8.57;4.85;;;8.40;99.90;;;9.01;59.53;103136.78;4993960;28;20050;-68
2023/04/03 08:57:30;;;;;;;8.68;4.95;;;8.90;99.90;;;8.23;56.33;103145.03;4993838;28;20074;-69
2023/04/03 09:00:04;;;;;;;6.32;5.00;;;8.40;99.90;;;7.62;57.63;103115.19;4993886;28;20066;-69
2023/04/03 09:02:36;;;;;;;6.28;4.85;;;7.80;99.90;;;8.07;59.32;103132.06;4993481;28;20416;-69
2023/04/03 09:05:16;;;;;;;11.93;5.55;;;7.80;99.90;;;7.98;57.10;103102.66;4993454;28;20038;-66
2023/04/03 09:07:47;;;;;;;9.25;5.00;;;8.10;99.90;;;7.63;56.78;103129.22;4993426;28;20046;-69
2023/04/03 09:10:25;;;;;;;8.82;4.88;;;7.80;99.90;;;7.76;55.94;103140.38;4993417;28;20042;-69
2023/04/03 09:13:04;;;;;;;7.95;4.90;;;7.70;99.90;;;7.74;56.54;103125.34;4993806;28;20076;-69
2023/04/03 09:15:33;;;;;;;8.57;5.05;;;7.60;99.90;;;8.19;56.50;103122.00;4992249;28;20488;-68
2023/04/03 09:18:15;;;;;;;6.25;4.43;;;8.00;99.90;;;7.79;53.89;103137.88;4993405;28;20409;-68
2023/04/03 09:20:53;;;;;;;8.75;5.10;;;7.80;99.90;;;8.21;55.04;103126.50;4993304;28;20046;-68
2023/04/03 09:23:29;;;;;;;6.57;4.30;;;8.00;99.90;;;9.16;52.64;103140.00;4993048;28;20070;-69
2023/04/03 09:26:05;;;;;;;119.22;11.65;;;8.80;99.90;;;8.59;51.16;103136.03;4993305;28;20492;-77
2023/04/03 09:28:39;;;;;;;7.03;4.32;;;8.60;99.90;;;8.19;52.07;103132.56;4993111;28;20046;-71
2023/04/03 09:31:23;;;;;;;6.32;4.10;;;8.10;99.90;;;8.61;53.17;103141.38;4993556;28;20074;-72
2023/04/03 09:33:59;;;;;;;10.18;4.97;;;8.40;99.90;;;9.07;51.37;103144.97;4993562;28;20495;-72
2023/04/03 09:36:47;;;;;;;4.47;4.07;;;8.80;99.90;;;9.21;52.98;103141.09;4992214;28;20567;-72
2023/04/03 09:39:20;;;;;;;7.78;4.18;;;9.00;99.90;;;9.20;52.22;103131.38;4993523;28;20484;-70
2023/04/03 09:42:02;;;;;;;7.18;4.75;;;9.00;99.90;;;8.76;47.82;103124.41;4993391;28;20515;-69
2023/04/03 09:44:32;;;;;;;5.25;3.92;;;8.70;99.90;;;8.53;45.77;103125.22;4993071;28;20047;-73
2023/04/03 09:47:19;;;;;;;6.53;4.00;;;8.60;99.90;;;8.28;44.57;103132.09;4993628;28;20129;-72
2023/04/03 09:49:47;;;;;;;10.57;4.47;;;8.30;99.90;;;7.97;45.80;103114.06;4992073;28;20081;-72
2023/04/03 09:52:25;;;;;;;14.73;4.85;;;8.00;99.90;;;8.39;48.72;103104.41;4993218;28;20046;-73
2023/04/03 09:54:53;;;;;;;5.32;3.80;;;8.20;99.90;;;9.03;47.27;103104.34;4993145;28;20042;-72
2023/04/03 09:57:22;;;;;;;8.25;4.10;;;8.70;99.90;;;8.81;44.68;103116.66;4993255;28;20046;-72
2023/04/03 10:00:00;;;;;;;5.20;4.05;;;8.80;99.90;;;8.68;43.24;103095.91;4993452;28;20042;-72
2023/04/03 10:02:37;;;;;;;7.03;4.22;;;8.70;99.90;;;8.69;45.00;103121.47;4993119;28;20100;-72
2023/04/03 10:05:30;;;;;;;5.88;4.22;;;8.70;99.90;;;9.41;45.16;103102.19;4992904;28;20062;-71
2023/04/03 10:08:24;;;;;;;5.63;4.63;;;9.10;99.90;;;9.01;45.09;103110.41;4993475;28;20043;-71
2023/04/03 10:11:15;;;;;;;4.72;3.67;;;9.00;99.90;;;8.64;45.92;103099.25;4992982;28;20050;-73
2023/04/03 10:13:59;;;;;;;6.63;3.80;;;8.60;99.90;;;8.76;47.82;103105.03;4993026;28;20043;-72
2023/04/03 10:16:38;;;;;;;5.05;4.07;;;8.60;99.90;;;9.06;45.77;103090.34;4993044;28;20134;-72
2023/04/03 10:19:34;;;;;;;7.10;3.80;;;8.90;99.90;;;9.24;45.20;103092.75;4992846;28;20089;-72
2023/04/03 10:22:14;;;;;;;5.05;4.43;;;9.00;99.90;;;9.54;44.53;103073.63;4992615;28;20046;-72
2023/04/03 10:24:54;;;;;;;5.53;4.25;;;9.40;99.90;;;9.18;44.20;103082.88;4992977;28;20072;-70
2023/04/03 10:27:35;;;;;;;5.70;4.13;;;9.10;99.90;;;9.34;44.80;103084.34;4992982;28;20132;-68
2023/04/03 10:30:22;;;;;;;5.30;4.10;;;9.10;99.90;;;8.94;44.20;103082.00;4992750;28;20100;-72
2023/04/03 10:33:02;;;;;;;4.90;3.90;;;8.80;99.90;;;8.92;44.43;103091.59;4992754;28;20146;-72
2023/04/03 10:35:46;;;;;;;4.25;3.80;;;8.90;99.90;;;9.03;43.22;103092.88;4993343;28;20075;-72
2023/04/03 10:38:22;;;;;;;4.40;4.00;;;8.90;99.90;;;8.79;42.67;103070.81;4992682;28;20118;-71
2023/04/03 10:41:00;;;;;;;5.68;4.30;;;8.70;99.90;;;9.46;42.32;103074.22;4993613;28;20053;-73
2023/04/03 10:43:37;;;;;;;4.47;3.72;;;9.20;99.90;;;8.81;41.92;103074.41;4996092;28;20046;-72